Westminster, CO

5:38 PM MDT on September 01, 2014 (GMT -0600)
Arvada, CO | Change Station
CLOSE
Current Station
Personal Weather Station
Location: Arvada, CO
Elevation: 5472 ft
Nearby Weather Stations

Elev 5472 ft 39.82 °N, 105.07 °W | Updated 5 seconds ago

Scattered Clouds
Scattered Clouds
76.5 °F
Feels Like 77 °F
N
0.0
Wind Variable Wind from ENE
Gusts 0.0 mph

Today
High -- | Low -- °F
--% Chance of Precip.
Yesterday
High -- | Low -- °F
Precip. -- in
6:28 AM 7:31 PM
Waxing Crescent, 45% visible
Pressure 30.01 in
Visibility 30.0 miles
Clouds Scattered Clouds 8000 ft
Heat Index 77 °F
Dew Point 42 °F
Humidity 29%
Rainfall 0.00 in
Snow Depth Not available.
UV 3 out of 12
Pollen 9.90 out of 12
Ozone Moderate
PM2.5 Good
Flu Activity Not available.
METAR KBJC 012253Z 09007KT 30SM SCT080 25/04 A3001

More Conditions Fewer Conditions

Pressure 30.01 in
Visibility 30.0 miles
Clouds Scattered Clouds 8000 ft
Heat Index 77 °F
Dew Point 42 °F
Humidity 29%
Rainfall 0.00 in
Snow Depth Not available.
UV 3 out of 12
Pollen 9.90 out of 12
Ozone Moderate
PM2.5 Good
Flu Activity Not available.
METAR KBJC 012253Z 09007KT 30SM SCT080 25/04 A3001

More Conditions Fewer Conditions

10-Day Weather Forecast

Almanac

Astronomy

Sep. 01, 2014 Rise Set
Actual Time 6:28 AM MDT 7:31 PM MDT
Civil Twilight 6:00 AM MDT 7:59 PM MDT
Nautical Twilight 5:27 AM MDT 8:31 PM MDT
Astronomical Twilight 4:53 AM MDT 9:06 PM MDT
Moon 1:15 PM MDT 11:35 PM MDT
Length of Visible Light 13h 58m
Length of Day
13h 03m
Tomorrow will be 2m 30s shorter.
Waxing Crescent, 45% of the Moon is Illuminated
Today
Waxing Crescent
Sep 2
First Quarter
Sep 8
Full
Sep 15
Last Quarter
Sep 24
New

Today's Extremes

State Highs State Lows

Community

WunderPhotos

Upload Photos

1,749,440 photos uploaded!

Nearby

Air Quality

  Air Quality AQ Index Pollutant
Yesterday Good
OZONE
Yesterday Good
PM10
Current Moderate
OZONE
Current Good
PM2.5
Monday Good
OZONE
Monday Good
PM2.5
Tuesday Moderate
OZONE
Tuesday Good
PM2.5

Snow Depth

Station Depth Elevation
Niwot 0 in 9910 ft
Berthoud Summit 0 in 11300 ft
Jackwhacker Gulch 0 in 10960 ft
Jones Pass 0 in 10400 ft
Loveland Basin 3 in 11400 ft

Earthquake Activity

City Distance Mag. Time & Date
No recent earthquake activity has been reported nearby.
Minimum magnitude displayed is 2.5.

Coastal Water Temperatures

Place Temperature
No Stations Reporting

Nearby Weather Stations